Weather at Dortmund Airport

Public forecast

Using degrees Celsius for public forecast. Weather courtesy of forecast.io.

Current aviation weather report (METAR) for Dortmund Airport

Report is more than 6 hours old.

2022/11/14 15:20 (retrieved 2 years ago)

EDLW 141520Z 13006KT 100V170 9999 OVC026 10/05 Q1011

Aviation forecast (TAF) for Dortmund Airport

Forecast is more than 12 hours old.

2023/02/22 18:27 (retrieved 1 year ago)

TAF EDLW 221700Z 2218/2318 19005KT 9999 SCT030 BECMG 2221/2224 BKN007 TEMPO 2300/2313 2500 -RADZ BR BKN004 BECMG 2302/2305 29005KT BECMG 2314/2316 BKN015 TEMPO 2316/2318 BKN010